createdAt,value
2018-02-06T00:00:29.971Z,87.20
2018-02-06T00:02:58.340Z,86.60
2018-02-06T00:05:27.483Z,85.90
2018-02-06T00:07:55.025Z,85.90
2018-02-06T00:10:22.550Z,86.00
2018-02-06T00:12:50.105Z,86.50
2018-02-06T00:15:18.416Z,86.60
2018-02-06T00:17:46.699Z,85.60
2018-02-06T00:20:14.244Z,85.40
2018-02-06T00:22:50.534Z,84.30
2018-02-06T00:25:18.027Z,85.10
2018-02-06T00:27:45.560Z,85.40
2018-02-06T00:30:13.077Z,86.30
2018-02-06T00:32:40.600Z,85.30
2018-02-06T00:35:08.110Z,84.00
2018-02-06T00:37:35.930Z,83.50
2018-02-06T00:40:03.451Z,83.50
2018-02-06T00:42:30.999Z,82.50
2018-02-06T00:44:58.518Z,83.10
2018-02-06T00:47:26.801Z,84.10
2018-02-06T00:49:54.327Z,84.10
2018-02-06T00:52:21.868Z,85.30
2018-02-06T00:54:49.391Z,86.40
2018-02-06T00:57:16.936Z,86.30
2018-02-06T00:59:45.219Z,85.50
2018-02-06T01:02:14.408Z,85.30
2018-02-06T01:04:42.686Z,84.60
2018-02-06T01:07:11.072Z,83.80
2018-02-06T01:09:38.598Z,83.80
2018-02-06T01:12:06.104Z,84.60
2018-02-06T01:14:33.640Z,85.70
2018-02-06T01:17:01.168Z,85.50
2018-02-06T01:19:29.671Z,84.40
2018-02-06T01:21:57.991Z,83.70
2018-02-06T01:24:25.519Z,83.70
2018-02-06T01:26:54.803Z,84.30
2018-02-06T01:29:23.107Z,85.00
2018-02-06T01:31:50.632Z,84.90
2018-02-06T01:34:18.155Z,85.30
2018-02-06T01:36:46.475Z,83.40
2018-02-06T01:39:14.744Z,82.90
2018-02-06T01:41:43.027Z,82.10
2018-02-06T01:44:11.331Z,82.70
2018-02-06T01:46:38.849Z,82.70
2018-02-06T01:49:06.371Z,84.30
2018-02-06T01:51:33.879Z,83.30
2018-02-06T01:54:02.178Z,83.50
2018-02-06T01:56:29.728Z,83.50
2018-02-06T01:58:57.266Z,84.20
2018-02-06T02:01:25.551Z,83.00
2018-02-06T02:03:53.863Z,82.30
2018-02-06T02:06:21.415Z,82.20
2018-02-06T02:08:48.914Z,82.60
2018-02-06T02:11:16.439Z,82.20
2018-02-06T02:13:44.069Z,82.10
2018-02-06T02:16:12.350Z,83.10
2018-02-06T02:18:39.854Z,83.10
2018-02-06T02:21:07.739Z,84.40
2018-02-06T02:23:35.245Z,83.80
2018-02-06T02:26:02.750Z,83.20
2018-02-06T02:28:30.272Z,83.40
2018-02-06T02:30:57.798Z,83.70
2018-02-06T02:33:26.096Z,84.60
2018-02-06T02:35:53.616Z,84.60
2018-02-06T02:38:21.904Z,84.60
2018-02-06T02:40:50.187Z,85.20
2018-02-06T04:38:58.267Z,80.40
2018-02-06T04:41:25.790Z,82.20
2018-02-06T04:43:53.307Z,82.70
2018-02-06T04:46:20.843Z,82.40
2018-02-06T04:48:48.390Z,81.30
2018-02-06T04:51:16.690Z,81.00
2018-02-06T04:53:44.243Z,81.00
2018-02-06T04:56:11.833Z,81.00
2018-02-06T04:58:39.719Z,80.90
2018-02-06T05:01:08.067Z,80.40
2018-02-06T05:03:36.341Z,80.90
2018-02-06T05:06:03.868Z,80.80
2018-02-06T05:08:31.386Z,80.80
2018-02-06T05:10:58.926Z,80.30
2018-02-06T05:13:26.937Z,80.50
2018-02-06T05:15:55.201Z,80.30
2018-02-06T05:18:23.483Z,80.70
2018-02-06T05:20:51.785Z,81.50
2018-02-06T05:23:19.333Z,81.30
2018-02-06T05:25:46.870Z,82.50
2018-02-06T05:28:15.158Z,80.50
2018-02-06T05:30:43.442Z,80.50
2018-02-06T05:33:10.985Z,80.50
2018-02-06T05:35:39.263Z,81.80
2018-02-06T05:38:07.570Z,80.80
2018-02-06T05:40:35.087Z,80.80
2018-02-06T05:43:03.514Z,80.80
2018-02-06T05:45:31.044Z,80.70
2018-02-06T05:47:59.347Z,80.70
2018-02-06T05:50:26.887Z,80.60
2018-02-06T05:52:54.412Z,80.60
2018-02-06T05:55:21.911Z,80.00
2018-02-06T05:57:49.423Z,79.40
2018-02-06T06:00:17.776Z,80.00
2018-02-06T06:02:45.319Z,79.40
2018-02-06T06:05:12.863Z,80.60
2018-02-06T06:07:40.388Z,80.90
2018-02-06T06:10:07.915Z,81.90
2018-02-06T06:12:35.438Z,82.30
2018-02-06T06:15:02.971Z,80.80
2018-02-06T06:17:31.275Z,81.30
2018-02-06T06:19:58.806Z,81.20
2018-02-06T06:22:26.435Z,80.80
2018-02-06T06:24:53.942Z,81.30
2018-02-06T06:27:21.471Z,80.80
2018-02-06T06:29:50.040Z,80.10
2018-02-06T06:32:17.569Z,80.60
2018-02-06T06:34:45.099Z,80.70
2018-02-06T06:37:12.615Z,80.70
2018-02-06T06:39:40.115Z,81.60
2018-02-06T06:42:07.610Z,82.20
2018-02-06T06:44:35.139Z,80.90
2018-02-06T06:47:02.647Z,80.80
2018-02-06T06:49:30.139Z,81.00
2018-02-06T06:51:58.436Z,79.40
2018-02-06T06:54:26.843Z,79.40
2018-02-06T06:56:54.355Z,80.60
2018-02-06T06:59:22.626Z,80.20
2018-02-06T07:01:50.173Z,80.20
2018-02-06T07:04:18.467Z,78.90
2018-02-06T07:06:45.966Z,78.90
2018-02-06T07:09:13.580Z,78.30
2018-02-06T07:11:41.872Z,79.80
2018-02-06T07:14:09.392Z,79.80
2018-02-06T07:16:36.911Z,80.90
2018-02-06T07:19:04.425Z,80.10
2018-02-06T07:21:32.710Z,76.10
2018-02-06T07:24:00.341Z,76.00
2018-02-06T07:26:27.834Z,74.20
2018-02-06T07:28:55.396Z,74.10
2018-02-06T07:31:22.913Z,71.50
2018-02-06T07:33:50.447Z,70.30
2018-02-06T07:36:17.973Z,71.30
2018-02-06T07:38:46.271Z,71.90
2018-02-06T07:41:13.890Z,71.90
2018-02-06T07:43:41.406Z,73.20
2018-02-06T07:46:08.906Z,75.90
2018-02-06T07:48:36.484Z,75.90
2018-02-06T07:51:04.761Z,76.40
2018-02-06T07:53:33.068Z,77.10
2018-02-06T07:56:00.590Z,77.10
2018-02-06T07:58:28.859Z,77.60
2018-02-06T08:00:57.147Z,75.60
2018-02-06T08:03:25.449Z,76.40
2018-02-06T08:05:52.963Z,76.30
2018-02-06T08:08:20.502Z,75.80
2018-02-06T08:10:48.007Z,76.80
2018-02-06T08:13:15.559Z,74.70
2018-02-06T08:15:43.841Z,72.80
2018-02-06T08:18:11.335Z,72.80
2018-02-06T08:20:39.180Z,72.30
2018-02-06T08:23:06.687Z,74.60
2018-02-06T08:25:34.204Z,75.40
2018-02-06T08:28:01.706Z,75.30
2018-02-06T08:30:29.224Z,74.60
2018-02-06T08:32:56.775Z,75.30
2018-02-06T08:35:24.275Z,74.40
2018-02-06T08:37:51.786Z,74.00
2018-02-06T08:40:19.318Z,74.10
2018-02-06T08:42:47.590Z,71.70
2018-02-06T08:45:15.872Z,70.70
2018-02-06T08:47:44.170Z,71.20
2018-02-06T08:50:11.679Z,71.20
2018-02-06T08:52:39.240Z,71.90
2018-02-06T08:55:06.759Z,73.20
2018-02-06T08:57:34.276Z,73.30
2018-02-06T09:00:02.586Z,74.20
2018-02-06T09:02:30.103Z,74.20
2018-02-06T09:04:58.366Z,75.00
2018-02-06T09:07:25.976Z,74.90
2018-02-06T09:09:53.504Z,75.60
2018-02-06T09:12:21.031Z,75.80
2018-02-06T09:14:49.560Z,75.80
2018-02-06T09:17:17.052Z,75.10
2018-02-06T09:19:44.551Z,74.20
2018-02-06T09:22:12.828Z,74.40
2018-02-06T09:24:41.099Z,72.60
2018-02-06T09:27:09.379Z,71.80
2018-02-06T09:29:37.657Z,71.40
2018-02-06T09:32:05.922Z,72.70
2018-02-06T09:34:33.442Z,72.60
2018-02-06T09:37:01.045Z,71.60
2018-02-06T09:39:28.552Z,70.00
2018-02-06T09:41:56.080Z,68.60
2018-02-06T09:44:24.344Z,70.80
2018-02-06T09:46:52.636Z,67.80
2018-02-06T09:49:20.146Z,67.80
2018-02-06T09:51:47.659Z,66.00
2018-02-06T09:54:15.156Z,66.00
2018-02-06T09:56:42.659Z,66.60
2018-02-06T09:59:10.927Z,67.30
2018-02-06T10:01:39.217Z,67.20
2018-02-06T10:04:06.738Z,67.20
2018-02-06T10:06:34.254Z,67.40
2018-02-06T10:09:01.750Z,68.10
2018-02-06T10:11:29.267Z,69.30
2018-02-06T10:13:56.779Z,69.80
2018-02-06T10:16:24.268Z,71.00
2018-02-06T10:18:51.794Z,70.60
2018-02-06T10:21:19.277Z,69.50
2018-02-06T10:23:46.762Z,68.80
2018-02-06T10:26:14.262Z,69.30
2018-02-06T10:28:41.785Z,70.00
2018-02-06T10:31:09.294Z,68.00
2018-02-06T10:33:37.560Z,68.50
2018-02-06T10:36:05.058Z,68.50
2018-02-06T10:38:32.554Z,68.60
2018-02-06T10:41:00.064Z,67.90
2018-02-06T10:43:27.550Z,67.70
2018-02-06T10:45:55.063Z,69.30
2018-02-06T10:48:23.334Z,68.70
2018-02-06T10:50:50.814Z,68.60
2018-02-06T10:53:18.617Z,68.30
2018-02-06T10:55:46.868Z,65.80
2018-02-06T10:58:14.372Z,65.90
2018-02-06T11:00:41.875Z,69.10
2018-02-06T11:03:09.362Z,69.20
2018-02-06T11:05:36.854Z,69.10
2018-02-06T11:08:04.338Z,70.20
2018-02-06T11:10:31.845Z,68.30
2018-02-06T11:12:59.330Z,68.80
2018-02-06T11:15:26.827Z,69.10
2018-02-06T11:17:54.334Z,69.50
2018-02-06T11:20:23.097Z,69.60
2018-02-06T11:22:50.694Z,70.90
2018-02-06T11:25:18.195Z,69.30
2018-02-06T11:27:45.678Z,71.00
2018-02-06T11:30:13.166Z,69.50
2018-02-06T11:32:40.658Z,69.80
2018-02-06T11:35:08.140Z,70.80
2018-02-06T11:37:35.775Z,70.10
2018-02-06T11:40:03.263Z,70.60
2018-02-06T11:42:30.748Z,69.00
2018-02-06T11:44:58.242Z,68.50
2018-02-06T11:47:25.738Z,70.40
2018-02-06T11:49:53.347Z,69.10
2018-02-06T11:52:21.594Z,67.40
2018-02-06T11:54:49.080Z,67.40
2018-02-06T11:57:17.339Z,67.70
2018-02-06T11:59:44.830Z,67.60
2018-02-06T12:02:12.314Z,67.70
2018-02-06T12:04:39.811Z,66.00
2018-02-06T12:07:07.293Z,67.20
2018-02-06T12:09:34.790Z,66.80
2018-02-06T12:12:02.278Z,67.70
2018-02-06T12:14:29.767Z,68.80
2018-02-06T12:16:57.263Z,69.30
2018-02-06T12:19:24.750Z,68.50
2018-02-06T12:21:52.232Z,69.90
2018-02-06T12:24:20.493Z,68.70
2018-02-06T12:26:48.742Z,68.90
2018-02-06T12:29:16.225Z,68.90
2018-02-06T12:31:44.490Z,67.90
2018-02-06T12:34:11.973Z,67.90
2018-02-06T12:36:40.330Z,68.90
2018-02-06T12:39:07.823Z,68.90
2018-02-06T12:41:35.318Z,68.30
2018-02-06T12:44:02.810Z,66.70
2018-02-06T12:46:31.066Z,67.10
2018-02-06T12:48:58.657Z,67.10
2018-02-06T12:51:26.914Z,67.00
2018-02-06T12:53:54.422Z,67.00
2018-02-06T12:56:21.929Z,68.20
2018-02-06T12:58:49.411Z,68.80
2018-02-06T13:01:16.914Z,68.80
2018-02-06T13:03:44.402Z,70.20
2018-02-06T13:06:11.885Z,70.00
2018-02-06T13:08:39.373Z,70.30
2018-02-06T13:11:06.863Z,67.90
2018-02-06T13:13:34.369Z,68.30
2018-02-06T13:16:01.862Z,69.00
2018-02-06T13:18:29.343Z,69.90
2018-02-06T13:20:56.841Z,70.80
2018-02-06T13:23:24.329Z,70.90
2018-02-06T13:25:51.826Z,70.50
2018-02-06T13:28:20.078Z,68.50
2018-02-06T13:30:47.673Z,68.50
2018-02-06T13:33:15.926Z,68.40
2018-02-06T13:35:43.464Z,68.30
2018-02-06T13:38:10.919Z,69.20
2018-02-06T13:40:38.401Z,66.80
2018-02-06T13:43:05.886Z,67.20
2018-02-06T13:45:33.383Z,68.80
2018-02-06T13:48:00.862Z,69.10
2018-02-06T13:50:28.360Z,70.40
2018-02-06T13:52:55.854Z,69.80
2018-02-06T13:55:23.439Z,69.90
2018-02-06T13:57:52.422Z,70.60
2018-02-06T14:00:19.915Z,70.60
2018-02-06T14:02:48.188Z,70.60
2018-02-06T14:05:16.434Z,70.40
2018-02-06T14:07:43.944Z,70.30
2018-02-06T14:10:11.432Z,70.50
2018-02-06T14:12:38.927Z,69.90
2018-02-06T14:15:07.225Z,71.90
2018-02-06T14:17:34.715Z,71.90
2018-02-06T14:20:02.207Z,72.00
2018-02-06T14:22:29.708Z,71.70
2018-02-06T14:24:57.231Z,72.00
2018-02-06T14:27:26.211Z,70.90
2018-02-06T14:29:53.708Z,70.90
2018-02-06T14:32:21.217Z,70.80
2018-02-06T14:34:48.712Z,71.10
2018-02-06T14:37:16.219Z,71.30
2018-02-06T14:39:43.704Z,70.80
2018-02-06T14:42:11.208Z,70.00
2018-02-06T14:44:38.708Z,70.20
2018-02-06T14:47:06.207Z,70.70
2018-02-06T14:49:33.695Z,70.40
2018-02-06T14:52:01.192Z,70.40
2018-02-06T14:54:28.694Z,71.20
2018-02-06T14:56:56.178Z,71.20
2018-02-06T14:59:23.679Z,71.10
2018-02-06T15:01:51.941Z,71.70
2018-02-06T15:04:19.448Z,71.70
2018-02-06T15:06:47.051Z,72.40
2018-02-06T15:09:14.540Z,72.00
2018-02-06T15:11:42.030Z,72.00
2018-02-06T15:14:09.530Z,72.20
2018-02-06T15:16:37.016Z,72.30
2018-02-06T15:19:04.519Z,72.30
2018-02-06T15:21:32.023Z,72.70
2018-02-06T15:24:00.390Z,73.20
2018-02-06T15:26:28.646Z,73.60
2018-02-06T15:28:56.134Z,73.50
2018-02-06T15:31:24.396Z,73.50
2018-02-06T15:33:52.754Z,73.90
2018-02-06T15:36:20.241Z,73.90
2018-02-06T15:38:48.506Z,74.10
2018-02-06T15:41:16.760Z,74.50
2018-02-06T15:43:44.254Z,74.50
2018-02-06T15:46:12.526Z,74.10
2018-02-06T15:48:40.647Z,74.10
2018-02-06T15:51:08.180Z,74.50
2018-02-06T15:53:35.670Z,74.60
2018-02-06T15:56:03.202Z,74.90
2018-02-06T15:58:30.689Z,75.30
2018-02-06T16:01:13.082Z,75.20
2018-02-06T16:03:40.586Z,75.40
2018-02-06T16:06:08.087Z,75.40
2018-02-06T16:08:35.662Z,75.50
2018-02-06T16:11:03.175Z,75.60
2018-02-06T16:13:30.690Z,76.20
2018-02-06T16:15:58.194Z,76.30
2018-02-06T16:18:26.451Z,76.80
2018-02-06T16:20:53.956Z,76.70
2018-02-06T16:23:21.456Z,76.60
2018-02-06T16:25:49.060Z,76.80
2018-02-06T16:28:16.554Z,77.00
2018-02-06T16:30:44.061Z,76.90
2018-02-06T16:33:12.347Z,77.40
2018-02-06T16:35:40.615Z,77.40
2018-02-06T16:38:08.878Z,77.40
2018-02-06T16:40:37.159Z,78.00
2018-02-06T16:43:05.418Z,77.60
2018-02-06T16:45:32.908Z,77.60
2018-02-06T16:48:00.506Z,77.80
2018-02-06T16:50:28.046Z,77.60
2018-02-06T16:52:55.556Z,78.20
2018-02-06T16:55:23.066Z,78.10
2018-02-06T16:57:50.567Z,78.40
2018-02-06T17:00:18.066Z,77.70
2018-02-06T17:02:45.585Z,77.80
2018-02-06T17:05:13.919Z,78.30
2018-02-06T17:07:41.428Z,78.30
2018-02-06T17:10:09.687Z,79.20
2018-02-06T17:12:37.201Z,79.20
2018-02-06T17:15:04.780Z,79.50
2018-02-06T17:17:32.287Z,80.10
2018-02-06T17:20:00.595Z,79.70
2018-02-06T17:22:28.166Z,79.70
2018-02-06T17:24:55.755Z,79.10
2018-02-06T17:27:23.268Z,79.20
2018-02-06T17:29:50.822Z,79.00
2018-02-06T17:32:18.350Z,79.30
2018-02-06T17:34:46.682Z,79.90
2018-02-06T17:37:14.250Z,79.80
2018-02-06T17:39:41.807Z,80.40
2018-02-06T17:42:10.218Z,81.20
2018-02-06T17:44:38.578Z,81.30
2018-02-06T17:47:06.134Z,81.20
2018-02-06T17:49:33.863Z,81.60
2018-02-06T17:52:01.429Z,81.40
2018-02-06T17:54:28.993Z,81.20
2018-02-06T17:56:56.620Z,81.60
2018-02-06T17:59:24.878Z,81.00
2018-02-06T18:01:53.160Z,81.10
2018-02-06T18:04:21.463Z,81.10
2018-02-06T18:06:49.030Z,80.90
2018-02-06T18:09:16.606Z,80.90
2018-02-06T18:11:44.183Z,80.70
2018-02-06T18:14:11.718Z,80.50
2018-02-06T18:16:39.250Z,80.00
2018-02-06T18:19:06.827Z,79.80
2018-02-06T18:21:34.395Z,79.70
2018-02-06T18:24:01.922Z,79.80
2018-02-06T18:26:29.524Z,79.70
2018-02-06T18:28:57.106Z,79.00
2018-02-06T18:31:24.739Z,79.50
2018-02-06T18:33:52.331Z,79.40
2018-02-06T18:36:19.928Z,79.60
2018-02-06T18:38:47.537Z,78.80
2018-02-06T18:41:15.149Z,79.00
2018-02-06T18:43:42.731Z,78.30
2018-02-06T18:46:10.334Z,78.50
2018-02-06T18:48:37.897Z,78.90
2018-02-06T18:51:05.474Z,79.20
2018-02-06T18:53:33.056Z,79.50
2018-02-06T18:56:00.648Z,79.50
2018-02-06T18:58:28.230Z,79.10
2018-02-06T19:00:55.844Z,78.00
2018-02-06T19:03:23.446Z,77.80
2018-02-06T19:05:52.617Z,78.30
2018-02-06T19:08:20.176Z,78.30
2018-02-06T19:10:47.751Z,78.10
2018-02-06T19:13:15.353Z,77.80
2018-02-06T19:15:42.985Z,78.80
2018-02-06T19:18:10.587Z,78.40
2018-02-06T19:20:38.173Z,79.30
2018-02-06T19:23:05.757Z,79.00
2018-02-06T19:25:33.894Z,80.00
2018-02-06T19:28:01.490Z,78.70
2018-02-06T19:30:29.072Z,78.90
2018-02-06T19:32:56.682Z,79.20
2018-02-06T19:35:24.290Z,79.80
2018-02-06T19:37:51.921Z,79.70
2018-02-06T19:40:19.512Z,79.40
2018-02-06T19:42:47.876Z,80.00
2018-02-06T19:45:15.479Z,80.10
2018-02-06T19:47:43.078Z,79.70
2018-02-06T19:50:10.671Z,79.70
2018-02-06T19:52:39.012Z,79.60
2018-02-06T19:55:06.599Z,79.60
2018-02-06T19:57:34.962Z,80.40
2018-02-06T20:00:02.549Z,80.30
2018-02-06T20:02:30.923Z,81.00
2018-02-06T20:04:59.282Z,81.10
2018-02-06T20:07:26.885Z,81.00
2018-02-06T20:09:54.500Z,80.90
2018-02-06T20:12:22.091Z,80.70
2018-02-06T20:14:49.675Z,81.40
2018-02-06T20:17:17.266Z,81.00
2018-02-06T20:19:46.401Z,81.20
2018-02-06T20:22:14.866Z,81.10
2018-02-06T20:24:42.452Z,81.10
2018-02-06T20:27:10.141Z,80.60
2018-02-06T20:29:37.721Z,80.70
2018-02-06T20:32:05.300Z,81.00
2018-02-06T20:34:32.931Z,81.20
2018-02-06T20:37:00.558Z,81.10
2018-02-06T20:39:28.135Z,81.50
2018-02-06T20:41:56.524Z,82.30
2018-02-06T20:44:24.104Z,82.20
2018-02-06T20:46:51.688Z,82.70
2018-02-06T20:49:20.044Z,83.20
2018-02-06T20:51:47.625Z,83.10
2018-02-06T20:54:16.011Z,82.90
2018-02-06T20:56:44.336Z,81.90
2018-02-06T20:59:11.920Z,81.90
2018-02-06T21:01:39.513Z,81.50
2018-02-06T21:04:07.858Z,82.70
2018-02-06T21:06:35.440Z,82.70
2018-02-06T21:09:03.737Z,85.00
2018-02-06T21:11:31.310Z,84.60
2018-02-06T21:13:58.878Z,84.20
2018-02-06T21:16:26.454Z,84.20
2018-02-06T21:18:54.033Z,84.20
2018-02-06T21:21:21.621Z,84.20
2018-02-06T21:23:49.950Z,83.90
2018-02-06T21:26:17.536Z,83.90
2018-02-06T21:28:45.114Z,83.80
2018-02-06T21:31:12.649Z,83.00
2018-02-06T21:33:40.195Z,83.20
2018-02-06T21:36:07.699Z,83.70
2018-02-06T21:38:36.031Z,84.10
2018-02-06T21:41:04.335Z,84.60
2018-02-06T21:43:31.879Z,84.70
2018-02-06T21:46:00.888Z,85.30
2018-02-06T21:48:28.375Z,84.70
2018-02-06T21:50:55.883Z,84.00
2018-02-06T21:53:23.392Z,83.30
2018-02-06T21:55:50.891Z,83.40
2018-02-06T21:58:18.374Z,84.00
2018-02-06T22:00:45.884Z,84.40
2018-02-06T22:03:13.378Z,84.80
2018-02-06T22:05:40.866Z,86.10
2018-02-06T22:08:09.142Z,85.70
2018-02-06T22:10:37.411Z,85.60
2018-02-06T22:13:05.724Z,85.30
2018-02-06T22:15:33.210Z,85.30
2018-02-06T22:18:01.467Z,85.40
2018-02-06T22:20:28.971Z,85.40
2018-02-06T22:22:56.467Z,85.20
2018-02-06T22:25:23.967Z,85.60
2018-02-06T22:27:51.458Z,86.00
2018-02-06T22:30:19.715Z,86.00
2018-02-06T22:32:47.214Z,85.90
2018-02-06T22:35:14.706Z,85.80
2018-02-06T22:37:42.207Z,85.10
2018-02-06T22:40:10.476Z,85.60
2018-02-06T22:42:37.967Z,85.60
2018-02-06T22:45:05.467Z,84.30
2018-02-06T22:47:32.956Z,83.40
2018-02-06T22:50:01.231Z,83.70
2018-02-06T22:52:28.748Z,83.70
2018-02-06T22:54:56.235Z,85.10
2018-02-06T22:57:23.735Z,85.30
2018-02-06T22:59:51.219Z,85.40
2018-02-06T23:02:18.731Z,83.80
2018-02-06T23:04:46.227Z,84.10
2018-02-06T23:07:13.714Z,84.30
2018-02-06T23:09:41.227Z,84.70
2018-02-06T23:12:08.719Z,85.20
2018-02-06T23:14:36.222Z,85.30
2018-02-06T23:17:03.710Z,85.60
2018-02-06T23:19:31.209Z,85.70
2018-02-06T23:21:58.736Z,85.60
2018-02-06T23:24:26.274Z,85.90
2018-02-06T23:26:53.770Z,86.30
2018-02-06T23:29:21.257Z,86.70
2018-02-06T23:31:49.517Z,87.20
2018-02-06T23:34:17.002Z,87.20
2018-02-06T23:36:44.502Z,87.20
2018-02-06T23:39:12.015Z,87.30
2018-02-06T23:41:39.524Z,87.10
2018-02-06T23:44:07.035Z,86.90
2018-02-06T23:46:34.539Z,87.10
2018-02-06T23:49:02.023Z,87.20
2018-02-06T23:51:30.286Z,85.90
2018-02-06T23:53:57.786Z,85.80
2018-02-06T23:56:25.283Z,85.70
2018-02-06T23:58:52.790Z,85.70
